Time;durP1;ratioP1;P1;durP2;ratioP2;P2;SDS_P1;SDS_P2;PMS_P1;PMS_P2;Temp;Humidity;BMP_temperature;BMP_pressure;BME280_temperature;BME280_humidity;BME280_pressure;Samples;Min_cycle;Max_cycle;Signal;HPM_P1;HPM_P2
2021/04/16 00:00:26;;;;;;;10.32;1.80;;;30.30;13.80;;;;;;5093906;28;20569;-64
2021/04/16 00:02:52;;;;;;;12.50;1.85;;;30.30;13.70;;;;;;5097818;28;20071;-64
2021/04/16 00:05:19;;;;;;;8.57;1.40;;;30.30;14.00;;;;;;5077213;28;20568;-64
2021/04/16 00:07:46;;;;;;;10.48;2.22;;;30.30;13.40;;;;;;5094515;28;20073;-64
2021/04/16 00:10:19;;;;;;;8.27;2.28;;;30.20;13.70;;;;;;5096886;28;20072;-66
2021/04/16 00:12:45;;;;;;;6.60;1.90;;;30.20;13.50;;;;;;5092645;28;20104;-64
2021/04/16 00:15:16;;;;;;;13.25;1.92;;;30.20;13.00;;;;;;5080777;28;20072;-63
2021/04/16 00:17:42;;;;;;;9.60;2.17;;;30.20;13.00;;;;;;5094890;28;20079;-64
2021/04/16 00:20:12;;;;;;;10.40;1.92;;;30.10;13.60;;;;;;5100005;28;20118;-63
2021/04/16 00:22:38;;;;;;;9.00;1.83;;;30.00;13.20;;;;;;5092994;28;20076;-64
2021/04/16 00:25:08;;;;;;;14.40;2.67;;;29.60;12.70;;;;;;5095351;28;20128;-64
2021/04/16 00:27:34;;;;;;;11.48;2.42;;;29.70;13.50;;;;;;5096887;28;20073;-63
2021/04/16 00:30:01;;;;;;;8.90;1.80;;;29.80;13.50;;;;;;5090302;28;20099;-64
2021/04/16 00:32:29;;;;;;;6.20;1.88;;;29.80;13.30;;;;;;5090326;28;20152;-65
2021/04/16 00:34:55;;;;;;;6.93;1.85;;;29.70;12.70;;;;;;5079511;28;20087;-65
2021/04/16 00:37:22;;;;;;;13.10;1.90;;;29.60;12.40;;;;;;5099416;28;20068;-64
2021/04/16 00:39:49;;;;;;;6.90;1.58;;;29.50;12.60;;;;;;5095319;28;20106;-63
2021/04/16 00:42:16;;;;;;;6.50;1.77;;;29.50;12.60;;;;;;5080160;28;20083;-64
2021/04/16 00:44:42;;;;;;;7.00;2.10;;;29.50;12.30;;;;;;5074260;28;20127;-65
2021/04/16 00:47:14;;;;;;;8.73;1.90;;;29.40;12.10;;;;;;5091306;28;20134;-66
2021/04/16 00:49:46;;;;;;;10.38;2.22;;;29.30;12.00;;;;;;5095330;28;20065;-65
2021/04/16 00:52:26;;;;;;;11.07;1.92;;;29.30;12.20;;;;;;5091796;28;20071;-63
2021/04/16 00:54:54;;;;;;;10.20;2.70;;;29.40;12.10;;;;;;5093326;28;20425;-64
2021/04/16 00:57:20;;;;;;;12.88;2.08;;;29.30;12.10;;;;;;5092621;28;20202;-64
2021/04/16 00:59:53;;;;;;;6.30;2.28;;;29.20;12.10;;;;;;5092280;28;20080;-64
2021/04/16 01:02:20;;;;;;;9.07;1.70;;;29.20;12.60;;;;;;5095275;28;20080;-65
2021/04/16 01:04:46;;;;;;;12.82;2.00;;;29.10;12.50;;;;;;5094932;28;20176;-65
2021/04/16 01:07:14;;;;;;;13.27;2.00;;;29.10;12.50;;;;;;5093938;28;20541;-64
2021/04/16 01:09:41;;;;;;;9.82;2.20;;;29.00;12.50;;;;;;5093173;28;20073;-65
2021/04/16 01:12:11;;;;;;;16.10;1.92;;;28.90;13.00;;;;;;5072104;28;20093;-65
2021/04/16 01:14:40;;;;;;;12.75;2.28;;;28.90;12.90;;;;;;5089761;28;20610;-65
2021/04/16 01:17:09;;;;;;;5.80;1.88;;;28.70;12.30;;;;;;5093995;28;20071;-64
2021/04/16 01:20:08;;;;;;;11.05;1.88;;;28.50;12.70;;;;;;5089687;28;20080;-64
2021/04/16 01:22:51;;;;;;;7.43;1.70;;;28.40;12.50;;;;;;5058387;28;20452;-65
2021/04/16 01:25:20;;;;;;;10.95;1.90;;;28.20;12.60;;;;;;5094545;28;20107;-65
2021/04/16 01:27:46;;;;;;;9.77;2.25;;;28.10;12.90;;;;;;5088111;28;20168;-64
2021/04/16 01:30:21;;;;;;;9.45;2.35;;;27.90;13.00;;;;;;5100214;28;20076;-65
2021/04/16 01:32:47;;;;;;;11.52;2.25;;;27.90;12.90;;;;;;5090903;28;20064;-64
2021/04/16 01:35:22;;;;;;;7.80;2.00;;;27.80;12.90;;;;;;5074795;28;20103;-65
2021/04/16 01:38:26;;;;;;;9.75;1.70;;;27.20;12.50;;;;;;5103993;27;20552;-61
2021/04/16 01:40:53;;;;;;;12.05;1.90;;;27.50;12.90;;;;;;5087577;28;20115;-61
2021/04/16 01:43:35;;;;;;;13.38;2.00;;;27.40;13.00;;;;;;5082894;28;20073;-60
2021/04/16 01:46:12;;;;;;;10.93;2.17;;;27.30;13.10;;;;;;5083826;28;20061;-62
2021/04/16 01:48:48;;;;;;;9.50;1.80;;;27.20;13.10;;;;;;5082825;28;20072;-60
2021/04/16 01:51:23;;;;;;;13.48;2.05;;;26.80;14.60;;;;;;5086361;28;20100;-63
2021/04/16 01:54:02;;;;;;;10.25;2.42;;;27.00;13.50;;;;;;5086919;28;20076;-60
2021/04/16 01:56:29;;;;;;;7.28;1.85;;;27.00;13.60;;;;;;5084352;28;20084;-61
2021/04/16 01:58:55;;;;;;;13.50;3.10;;;26.90;13.60;;;;;;5083680;28;20077;-61
2021/04/16 02:01:22;;;;;;;10.98;2.05;;;26.80;13.90;;;;;;5086478;28;20104;-59
2021/04/16 02:03:48;;;;;;;13.02;2.58;;;26.70;13.90;;;;;;5082596;28;20073;-58
2021/04/16 02:06:15;;;;;;;14.68;2.38;;;26.70;13.80;;;;;;5083589;28;20080;-59
2021/04/16 02:08:41;;;;;;;11.02;2.45;;;26.50;14.00;;;;;;5085680;28;20083;-60
2021/04/16 02:11:08;;;;;;;15.95;2.47;;;26.50;14.30;;;;;;5086470;28;20084;-61
2021/04/16 02:13:34;;;;;;;9.10;2.38;;;26.40;14.40;;;;;;5084326;28;20074;-62
2021/04/16 02:16:03;;;;;;;11.65;2.28;;;26.40;14.60;;;;;;5084237;28;20073;-60
2021/04/16 02:18:29;;;;;;;13.13;3.08;;;26.30;14.50;;;;;;5083289;28;20097;-60
2021/04/16 02:20:56;;;;;;;15.98;3.58;;;26.30;14.70;;;;;;5085413;28;20122;-60
2021/04/16 02:23:22;;;;;;;17.77;2.63;;;26.20;14.90;;;;;;5079670;28;20100;-60
2021/04/16 02:25:49;;;;;;;12.48;2.50;;;26.10;15.10;;;;;;5080092;28;20095;-59
2021/04/16 02:28:15;;;;;;;18.23;2.83;;;26.00;15.00;;;;;;5075017;28;20101;-59
2021/04/16 02:30:42;;;;;;;15.32;2.50;;;26.00;15.30;;;;;;5081403;28;20122;-61
2021/04/16 02:33:08;;;;;;;13.32;3.15;;;25.90;15.40;;;;;;5080782;28;20188;-61
2021/04/16 02:35:35;;;;;;;19.95;2.78;;;25.80;15.40;;;;;;5081699;28;20624;-61
2021/04/16 02:38:02;;;;;;;20.73;3.20;;;25.80;15.70;;;;;;5084692;28;20480;-62
2021/04/16 02:40:28;;;;;;;18.63;2.92;;;25.70;15.70;;;;;;5079041;28;20077;-64
2021/04/16 02:42:55;;;;;;;33.25;3.45;;;25.60;15.80;;;;;;5082688;28;20525;-62
2021/04/16 02:45:24;;;;;;;41.63;4.40;;;25.60;16.00;;;;;;5083096;28;20111;-63
2021/04/16 02:47:51;;;;;;;24.90;3.78;;;25.60;16.30;;;;;;5080758;28;20065;-62
2021/04/16 02:50:24;;;;;;;29.70;3.88;;;25.50;16.30;;;;;;5071343;28;20437;-60
2021/04/16 02:52:51;;;;;;;17.40;3.35;;;25.40;16.50;;;;;;5071036;28;20084;-62
2021/04/16 02:55:18;;;;;;;21.35;3.90;;;25.40;16.60;;;;;;5067998;28;20098;-60
2021/04/16 02:57:44;;;;;;;22.55;4.18;;;25.30;16.50;;;;;;5070522;28;20546;-61
2021/04/16 03:00:19;;;;;;;31.52;4.78;;;25.20;16.60;;;;;;5071098;28;20069;-59
2021/04/16 03:02:45;;;;;;;41.60;5.20;;;25.10;17.30;;;;;;5070383;28;20068;-60
2021/04/16 03:05:12;;;;;;;23.50;6.05;;;25.10;17.60;;;;;;5070569;28;20078;-59
2021/04/16 03:07:39;;;;;;;22.85;6.10;;;25.00;17.10;;;;;;5071006;28;20083;-60
2021/04/16 03:10:07;;;;;;;22.15;6.85;;;24.90;17.30;;;;;;5066531;28;20411;-59
2021/04/16 03:12:34;;;;;;;28.60;5.90;;;24.80;17.20;;;;;;5062281;28;20084;-60
2021/04/16 03:15:00;;;;;;;32.00;5.72;;;24.70;17.30;;;;;;5067653;28;20157;-60
2021/04/16 03:17:27;;;;;;;38.70;6.43;;;24.70;17.40;;;;;;5072153;28;20101;-61
2021/04/16 03:19:54;;;;;;;37.28;7.43;;;24.70;18.00;;;;;;5064360;28;20065;-60
2021/04/16 03:22:20;;;;;;;36.28;7.55;;;24.60;18.00;;;;;;5071405;28;20073;-59
2021/04/16 03:24:47;;;;;;;33.38;9.63;;;24.50;18.40;;;;;;5073493;28;20080;-59
2021/04/16 03:27:14;;;;;;;36.33;7.20;;;24.50;18.10;;;;;;5068733;28;20077;-60
2021/04/16 03:29:40;;;;;;;25.08;6.10;;;24.40;18.40;;;;;;5072457;28;20080;-61
2021/04/16 03:32:07;;;;;;;28.63;6.00;;;24.30;18.30;;;;;;5070573;28;20081;-59
2021/04/16 03:34:34;;;;;;;37.08;6.03;;;24.30;18.50;;;;;;5071868;28;20552;-60
2021/04/16 03:37:00;;;;;;;32.95;7.00;;;24.20;18.70;;;;;;5070019;28;20112;-58
2021/04/16 03:39:27;;;;;;;32.63;9.15;;;24.20;19.00;;;;;;5070211;28;20076;-59
2021/04/16 03:41:53;;;;;;;30.20;10.10;;;24.20;19.60;;;;;;5071624;28;20073;-62
2021/04/16 03:44:19;;;;;;;43.65;9.52;;;24.20;20.60;;;;;;5071220;28;20086;-60
2021/04/16 03:46:46;;;;;;;33.75;9.25;;;24.10;20.40;;;;;;5068641;28;20069;-59
2021/04/16 03:49:12;;;;;;;34.03;8.32;;;24.20;20.70;;;;;;5070963;28;20088;-59
2021/04/16 03:51:53;;;;;;;35.35;8.07;;;24.10;20.30;;;;;;5068779;28;20522;-59
2021/04/16 03:54:20;;;;;;;46.22;7.07;;;24.00;20.10;;;;;;5070428;28;20116;-62
2021/04/16 03:56:47;;;;;;;33.03;7.32;;;24.00;19.40;;;;;;5069656;28;20104;-60
2021/04/16 03:59:14;;;;;;;37.08;6.28;;;24.00;19.40;;;;;;5067918;28;20097;-60
2021/04/16 04:01:41;;;;;;;37.05;6.93;;;23.90;19.20;;;;;;5069553;28;20822;-61
2021/04/16 04:04:07;;;;;;;36.08;7.18;;;23.90;19.00;;;;;;5071602;28;20112;-59
2021/04/16 04:06:34;;;;;;;41.20;7.15;;;23.90;19.20;;;;;;5068982;28;20078;-61
2021/04/16 04:09:01;;;;;;;39.13;7.05;;;23.90;19.10;;;;;;5070754;28;20076;-59
2021/04/16 04:11:27;;;;;;;47.55;7.70;;;23.90;19.80;;;;;;5068882;28;20604;-62
2021/04/16 04:13:55;;;;;;;33.90;8.38;;;23.90;19.40;;;;;;5069614;28;20092;-60
2021/04/16 04:16:21;;;;;;;50.05;9.05;;;23.90;19.50;;;;;;5069278;28;21967;-59
2021/04/16 04:18:47;;;;;;;40.60;10.40;;;23.90;19.90;;;;;;5072057;28;20533;-58
2021/04/16 04:21:14;;;;;;;57.38;11.25;;;23.80;19.70;;;;;;5073632;28;20081;-60
2021/04/16 04:23:40;;;;;;;69.68;11.95;;;23.80;19.50;;;;;;5069495;28;20073;-60
2021/04/16 04:26:07;;;;;;;49.08;11.20;;;23.80;19.00;;;;;;5071551;28;20077;-60
2021/04/16 04:28:33;;;;;;;65.65;11.90;;;23.80;18.80;;;;;;5069169;28;20080;-63
2021/04/16 04:31:00;;;;;;;59.70;13.57;;;23.70;18.50;;;;;;5071235;28;20073;-59
2021/04/16 04:33:27;;;;;;;61.88;12.57;;;23.70;18.10;;;;;;5070247;28;20469;-60
2021/04/16 04:35:54;;;;;;;56.33;11.32;;;23.60;18.00;;;;;;5068766;28;20076;-59
2021/04/16 04:38:21;;;;;;;56.00;9.95;;;23.60;17.70;;;;;;5069309;28;20117;-62
2021/04/16 04:40:47;;;;;;;42.03;9.75;;;23.70;17.70;;;;;;5066132;28;20134;-61
2021/04/16 04:43:14;;;;;;;60.60;10.25;;;23.70;18.30;;;;;;5066486;28;20073;-59
2021/04/16 04:45:40;;;;;;;39.55;10.48;;;23.70;19.00;;;;;;5068612;28;20062;-60
2021/04/16 04:48:07;;;;;;;58.67;11.18;;;23.70;20.10;;;;;;5065255;28;20077;-62
2021/04/16 04:50:34;;;;;;;46.33;10.27;;;23.70;20.50;;;;;;5068378;28;20084;-62
2021/04/16 04:53:00;;;;;;;50.42;9.23;;;23.70;20.80;;;;;;5068055;28;20080;-60
2021/04/16 04:55:30;;;;;;;42.90;7.97;;;23.60;21.50;;;;;;5068549;28;20077;-60
2021/04/16 04:57:58;;;;;;;41.55;7.90;;;23.60;22.00;;;;;;5067460;28;20453;-59
2021/04/16 05:00:26;;;;;;;38.22;7.38;;;23.60;22.20;;;;;;5062989;28;20065;-56
2021/04/16 05:02:53;;;;;;;41.67;7.32;;;23.60;22.40;;;;;;5067528;28;20541;-57
2021/04/16 05:05:22;;;;;;;34.00;6.20;;;23.60;22.60;;;;;;5065337;28;20529;-59
2021/04/16 05:07:50;;;;;;;44.03;10.27;;;23.60;23.10;;;;;;5072147;28;20077;-60
2021/04/16 05:10:17;;;;;;;32.80;7.40;;;23.50;22.70;;;;;;5070897;28;20080;-60
2021/04/16 05:12:44;;;;;;;25.23;6.00;;;23.50;22.80;;;;;;5067501;28;20134;-58
2021/04/16 05:15:11;;;;;;;26.52;6.80;;;23.50;22.90;;;;;;5068234;28;20162;-60
2021/04/16 05:17:37;;;;;;;24.30;5.78;;;23.50;23.00;;;;;;5067602;28;20105;-60
2021/04/16 05:20:06;;;;;;;34.47;6.43;;;23.50;22.90;;;;;;5069217;28;20096;-59
2021/04/16 05:22:33;;;;;;;25.30;6.00;;;23.40;22.90;;;;;;5066612;28;20105;-60
2021/04/16 05:24:59;;;;;;;27.63;5.93;;;23.30;22.90;;;;;;5063297;28;20107;-58
2021/04/16 05:27:26;;;;;;;22.75;5.20;;;23.30;22.80;;;;;;5061035;28;20081;-59
2021/04/16 05:29:54;;;;;;;27.92;6.18;;;23.30;22.70;;;;;;5063940;28;20077;-58
2021/04/16 05:32:20;;;;;;;22.73;5.10;;;23.30;22.70;;;;;;5068353;28;20077;-60
2021/04/16 05:34:48;;;;;;;24.27;5.53;;;23.20;22.70;;;;;;5065407;28;20080;-60
2021/04/16 05:37:15;;;;;;;20.38;5.38;;;23.20;22.60;;;;;;5061262;28;20186;-60
2021/04/16 05:39:42;;;;;;;26.10;5.13;;;23.20;22.50;;;;;;5066059;28;20069;-60
2021/04/16 05:42:09;;;;;;;23.38;5.45;;;23.20;22.40;;;;;;5066705;28;20427;-60
2021/04/16 05:44:36;;;;;;;19.58;4.65;;;23.20;22.40;;;;;;5068876;28;20183;-59
2021/04/16 05:47:03;;;;;;;20.10;4.18;;;23.20;22.30;;;;;;5067982;28;20084;-57
2021/04/16 05:49:29;;;;;;;20.00;3.92;;;23.20;22.10;;;;;;5062664;28;20182;-59
2021/04/16 05:51:56;;;;;;;16.42;4.40;;;23.10;22.10;;;;;;5069839;28;20073;-58
2021/04/16 05:54:23;;;;;;;17.88;3.85;;;23.10;22.20;;;;;;5068521;28;20077;-60
2021/04/16 05:56:50;;;;;;;22.52;4.88;;;23.10;22.10;;;;;;5070586;28;20089;-59
2021/04/16 05:59:16;;;;;;;19.45;4.35;;;23.10;22.10;;;;;;5066019;28;20073;-58
2021/04/16 06:01:43;;;;;;;13.50;3.75;;;23.00;22.10;;;;;;5062915;28;20069;-58
2021/04/16 06:04:16;;;;;;;29.00;4.95;;;23.00;22.00;;;;;;5065193;28;20079;-60
2021/04/16 06:06:43;;;;;;;15.77;3.97;;;23.00;22.10;;;;;;5068286;28;20557;-59
2021/04/16 06:09:09;;;;;;;19.30;4.10;;;22.90;22.00;;;;;;5066836;28;20127;-60
2021/04/16 06:11:36;;;;;;;23.38;4.53;;;22.90;22.10;;;;;;5063124;28;20096;-58
2021/04/16 06:14:04;;;;;;;14.38;4.55;;;22.90;22.00;;;;;;5066284;28;20077;-60
2021/04/16 06:16:31;;;;;;;17.30;4.90;;;22.90;21.90;;;;;;5063398;28;20089;-60
2021/04/16 06:18:57;;;;;;;23.52;4.03;;;22.80;21.90;;;;;;5064157;28;20084;-64
2021/04/16 06:21:24;;;;;;;17.80;3.53;;;22.80;21.90;;;;;;5066819;28;20126;-60
2021/04/16 06:23:50;;;;;;;23.08;4.18;;;22.70;21.90;;;;;;5068994;28;20076;-60
2021/04/16 06:26:17;;;;;;;23.23;3.83;;;22.70;22.00;;;;;;5070099;28;20329;-60
2021/04/16 06:28:44;;;;;;;18.98;3.67;;;22.60;22.10;;;;;;5068827;28;20065;-60
2021/04/16 06:31:14;;;;;;;23.20;3.90;;;22.60;22.10;;;;;;5070931;28;20104;-60
2021/04/16 06:33:40;;;;;;;18.90;3.92;;;22.50;22.00;;;;;;5067386;28;20076;-60
2021/04/16 06:36:09;;;;;;;14.15;3.28;;;22.50;22.10;;;;;;5071452;28;20101;-61
2021/04/16 06:38:41;;;;;;;16.17;3.33;;;22.50;22.10;;;;;;5072928;28;20093;-61
2021/04/16 06:41:32;;;;;;;13.70;3.92;;;22.60;21.90;;;;;;5072573;28;20088;-60
2021/04/16 06:44:11;;;;;;;14.02;3.08;;;22.50;21.90;;;;;;5071412;28;20077;-60
2021/04/16 06:46:44;;;;;;;14.90;3.92;;;22.50;21.80;;;;;;5073206;28;20087;-61
2021/04/16 06:49:15;;;;;;;14.43;3.20;;;22.40;21.70;;;;;;5069981;28;20143;-62
2021/04/16 06:52:00;;;;;;;10.38;3.38;;;22.40;21.60;;;;;;5068795;28;20204;-60
2021/04/16 06:54:37;;;;;;;17.60;3.83;;;22.40;21.80;;;;;;5069879;28;20061;-59
2021/04/16 06:57:08;;;;;;;18.13;3.42;;;22.40;21.90;;;;;;5069519;28;20096;-61
2021/04/16 06:59:35;;;;;;;9.38;3.15;;;22.40;22.10;;;;;;5069477;28;20104;-60
2021/04/16 07:02:08;;;;;;;10.50;2.95;;;22.40;22.00;;;;;;5086416;28;20173;-60
2021/04/16 07:04:55;;;;;;;17.42;3.10;;;22.30;22.10;;;;;;5068206;28;20081;-60
2021/04/16 07:07:44;;;;;;;16.67;3.35;;;22.20;22.20;;;;;;5073178;28;20150;-60
2021/04/16 07:10:29;;;;;;;15.02;2.72;;;22.20;22.10;;;;;;5073512;28;20438;-57
2021/04/16 07:12:58;;;;;;;15.02;3.00;;;22.20;22.60;;;;;;5067282;28;20139;-60
2021/04/16 07:15:45;;;;;;;15.07;3.10;;;22.20;22.20;;;;;;5069626;28;20101;-59
2021/04/16 07:18:14;;;;;;;15.43;3.47;;;22.20;22.00;;;;;;5068906;28;20509;-59
2021/04/16 07:20:41;;;;;;;15.65;2.90;;;22.10;22.00;;;;;;5071257;28;20070;-59
2021/04/16 07:23:07;;;;;;;16.48;3.42;;;22.10;22.20;;;;;;5069277;28;20088;-60
2021/04/16 07:25:34;;;;;;;14.02;3.65;;;22.20;22.40;;;;;;5070184;28;20119;-59
2021/04/16 07:28:06;;;;;;;18.17;3.65;;;22.10;22.60;;;;;;5070422;28;20073;-62
2021/04/16 07:30:47;;;;;;;12.27;2.85;;;22.10;22.80;;;;;;5067916;28;20074;-60
2021/04/16 07:33:42;;;;;;;15.05;2.92;;;22.00;22.80;;;;;;5068748;28;20065;-60
2021/04/16 07:36:39;;;;;;;14.20;3.30;;;22.10;23.10;;;;;;5069801;28;20062;-61
2021/04/16 07:39:16;;;;;;;18.35;3.10;;;22.00;22.90;;;;;;5070529;28;20085;-60
2021/04/16 07:41:55;;;;;;;14.27;3.42;;;22.00;23.00;;;;;;5068529;28;20075;-59
2021/04/16 07:44:36;;;;;;;14.20;2.88;;;22.00;23.10;;;;;;5067532;28;20436;-60
2021/04/16 07:47:16;;;;;;;16.67;3.30;;;22.00;23.20;;;;;;5068155;28;20432;-59
2021/04/16 07:50:07;;;;;;;12.93;3.00;;;21.90;23.50;;;;;;5065609;28;20077;-60
2021/04/16 07:52:38;;;;;;;16.05;3.35;;;21.90;23.90;;;;;;5069942;28;20069;-58
2021/04/16 07:55:27;;;;;;;17.48;3.70;;;21.90;24.20;;;;;;5068073;28;20073;-58
2021/04/16 07:58:01;;;;;;;14.77;2.78;;;21.90;24.50;;;;;;5067074;28;20097;-60
2021/04/16 08:00:36;;;;;;;15.48;3.33;;;21.80;24.80;;;;;;5069108;28;20078;-59
2021/04/16 08:03:19;;;;;;;18.92;3.10;;;21.80;25.00;;;;;;5067148;28;20076;-61
2021/04/16 08:05:48;;;;;;;16.45;3.17;;;21.80;25.30;;;;;;5069410;28;20069;-60
2021/04/16 08:08:20;;;;;;;14.02;3.40;;;21.70;25.40;;;;;;5068560;28;20526;-59
2021/04/16 08:10:50;;;;;;;18.73;3.83;;;21.70;25.60;;;;;;5070987;28;20085;-61
2021/04/16 08:13:32;;;;;;;15.13;3.45;;;21.70;25.80;;;;;;5069414;28;20099;-59
2021/04/16 08:16:19;;;;;;;20.33;3.60;;;21.70;26.10;;;;;;5069749;28;20586;-61
2021/04/16 08:19:01;;;;;;;22.67;3.80;;;21.70;26.60;;;;;;5068319;28;20119;-61
2021/04/16 08:21:32;;;;;;;17.52;3.58;;;21.60;27.60;;;;;;5066862;28;20483;-60
2021/04/16 08:24:06;;;;;;;23.55;3.95;;;21.60;27.90;;;;;;5068233;28;20085;-59
2021/04/16 08:26:43;;;;;;;20.13;3.85;;;21.60;28.30;;;;;;5070306;28;20215;-59
2021/04/16 08:29:26;;;;;;;20.02;4.30;;;21.50;28.70;;;;;;5072758;28;20061;-60
2021/04/16 08:32:31;;;;;;;20.35;4.28;;;21.50;28.90;;;;;;5068014;28;20073;-59
2021/04/16 08:35:31;;;;;;;20.85;4.03;;;21.40;29.10;;;;;;5061618;28;20093;-60
2021/04/16 08:38:04;;;;;;;19.88;3.92;;;21.40;29.20;;;;;;5068792;28;20132;-59
2021/04/16 08:40:40;;;;;;;12.15;3.00;;;21.40;29.20;;;;;;5070243;28;20075;-61
2021/04/16 08:43:11;;;;;;;21.48;3.63;;;21.40;29.10;;;;;;5068566;28;20565;-61
2021/04/16 08:45:40;;;;;;;21.13;3.60;;;21.40;29.00;;;;;;5069606;28;20082;-59
2021/04/16 08:48:20;;;;;;;17.52;4.07;;;21.40;29.00;;;;;;5067258;28;20160;-60
2021/04/16 08:50:56;;;;;;;16.60;3.20;;;21.40;29.00;;;;;;5069268;28;20072;-59
2021/04/16 08:53:23;;;;;;;24.27;3.55;;;21.30;29.00;;;;;;5066471;28;20072;-60
2021/04/16 08:55:54;;;;;;;18.75;3.85;;;21.40;28.90;;;;;;5064500;28;20119;-61
2021/04/16 08:58:38;;;;;;;16.92;3.47;;;21.30;28.90;;;;;;5068628;28;20108;-61
2021/04/16 09:01:07;;;;;;;17.80;3.42;;;21.30;28.90;;;;;;5085453;28;20083;-59
2021/04/16 09:03:41;;;;;;;18.48;3.13;;;21.30;28.90;;;;;;5065890;28;20096;-60
2021/04/16 09:06:20;;;;;;;14.93;3.28;;;21.30;28.90;;;;;;5066993;28;20089;-60
2021/04/16 09:08:48;;;;;;;19.33;3.90;;;21.20;29.00;;;;;;5064790;28;20151;-60
2021/04/16 09:11:53;;;;;;;17.13;3.10;;;21.20;29.10;;;;;;5068015;28;20085;-60
2021/04/16 09:14:29;;;;;;;21.52;3.85;;;21.20;29.10;;;;;;5063971;28;20270;-61
2021/04/16 09:17:00;;;;;;;18.25;3.35;;;21.10;29.20;;;;;;5068778;28;20453;-60
2021/04/16 09:19:27;;;;;;;19.00;3.55;;;21.10;29.30;;;;;;5068842;28;20157;-60
2021/04/16 09:22:06;;;;;;;20.65;3.97;;;21.10;29.40;;;;;;5066157;28;20100;-59
2021/04/16 09:24:53;;;;;;;20.30;3.47;;;21.10;29.70;;;;;;5069542;28;20077;-60
2021/04/16 09:27:31;;;;;;;25.75;4.47;;;21.00;29.80;;;;;;5066079;28;20092;-60
2021/04/16 09:30:06;;;;;;;14.55;3.28;;;21.00;30.00;;;;;;5069342;28;20667;-59
2021/04/16 09:32:37;;;;;;;19.27;3.45;;;21.00;29.90;;;;;;5066746;28;20068;-60
2021/04/16 09:35:27;;;;;;;13.73;3.22;;;20.90;29.90;;;;;;5067406;28;20069;-59
2021/04/16 09:38:22;;;;;;;28.15;4.05;;;20.90;29.80;;;;;;5061958;28;20105;-61
2021/04/16 09:41:23;;;;;;;17.98;3.58;;;20.90;29.80;;;;;;5063814;28;20075;-59
2021/04/16 09:43:54;;;;;;;12.52;3.42;;;20.80;29.90;;;;;;5064366;28;20069;-60
2021/04/16 09:46:33;;;;;;;17.40;3.72;;;20.80;30.00;;;;;;5068988;28;20584;-59
2021/04/16 09:49:29;;;;;;;13.82;3.80;;;20.80;30.00;;;;;;5068798;28;20130;-60
2021/04/16 09:51:58;;;;;;;18.23;3.50;;;20.90;30.00;;;;;;5066847;28;20160;-59
2021/04/16 09:54:37;;;;;;;14.60;3.83;;;20.80;29.90;;;;;;5066253;28;20073;-60
2021/04/16 09:57:04;;;;;;;12.45;3.30;;;20.80;30.00;;;;;;5066860;28;20065;-60
2021/04/16 09:59:37;;;;;;;17.08;4.30;;;20.80;30.00;;;;;;5071213;28;20154;-61
2021/04/16 10:02:13;;;;;;;16.42;3.58;;;20.70;30.00;;;;;;5073393;28;20073;-62
2021/04/16 10:04:59;;;;;;;19.42;3.47;;;20.70;30.20;;;;;;5074472;28;20077;-58
2021/04/16 10:07:35;;;;;;;21.25;3.72;;;20.70;30.10;;;;;;5071331;28;20101;-59
2021/04/16 10:10:08;;;;;;;17.05;4.13;;;20.70;30.20;;;;;;5070930;28;20072;-59
2021/04/16 10:12:35;;;;;;;20.05;3.45;;;20.70;30.60;;;;;;5071742;28;20072;-60
2021/04/16 10:15:17;;;;;;;18.58;3.42;;;20.70;30.30;;;;;;5069174;28;20093;-60
2021/04/16 10:17:58;;;;;;;14.68;3.40;;;20.70;30.30;;;;;;5071784;28;20108;-59
2021/04/16 10:20:27;;;;;;;15.07;3.90;;;20.70;30.00;;;;;;5072568;28;20077;-61
2021/04/16 10:23:22;;;;;;;18.95;3.95;;;20.70;29.90;;;;;;5069289;28;20073;-59
2021/04/16 12:41:22;;;;;;;16.20;3.70;;;19.50;33.10;;;;;;5068277;28;20561;-60
2021/04/16 12:43:50;;;;;;;18.30;3.78;;;19.60;33.30;;;;;;5068184;28;20072;-60
2021/04/16 12:46:19;;;;;;;17.52;3.65;;;19.60;33.30;;;;;;5066264;28;20123;-57
2021/04/16 12:48:46;;;;;;;20.95;3.78;;;19.50;33.20;;;;;;5068063;28;20093;-57
2021/04/16 12:51:14;;;;;;;15.70;3.05;;;19.60;33.70;;;;;;5070617;28;20538;-60
2021/04/16 12:53:40;;;;;;;14.00;3.65;;;19.50;33.00;;;;;;5065150;28;20097;-59
2021/04/16 12:56:09;;;;;;;18.77;3.05;;;19.50;33.00;;;;;;5068394;28;20071;-54
2021/04/16 12:58:46;;;;;;;12.90;3.15;;;19.50;33.20;;;;;;5063752;28;20073;-60
2021/04/16 13:01:25;;;;;;;20.35;3.67;;;19.50;33.50;;;;;;5066745;28;20069;-58
2021/04/16 13:03:54;;;;;;;15.73;3.40;;;19.40;33.70;;;;;;5066081;28;20081;-60
2021/04/16 13:06:39;;;;;;;18.17;3.55;;;19.50;33.60;;;;;;5064798;28;20069;-59
2021/04/16 13:09:11;;;;;;;16.67;3.92;;;19.50;33.70;;;;;;5065553;28;20090;-60
2021/04/16 13:11:38;;;;;;;16.02;3.60;;;19.50;34.10;;;;;;5069899;28;20073;-60
2021/04/16 13:14:06;;;;;;;19.33;4.10;;;19.60;33.90;;;;;;5067593;28;20119;-58
2021/04/16 13:16:32;;;;;;;13.48;4.03;;;19.60;33.60;;;;;;5069879;28;20077;-59
2021/04/16 13:19:05;;;;;;;18.25;3.30;;;19.50;33.50;;;;;;5066162;28;20076;-59
2021/04/16 13:21:38;;;;;;;24.77;4.03;;;19.50;33.70;;;;;;5071112;28;20069;-59
2021/04/16 13:24:06;;;;;;;29.42;3.90;;;19.50;34.00;;;;;;5072016;28;20076;-59
2021/04/16 13:26:33;;;;;;;19.27;3.83;;;19.50;34.20;;;;;;5068347;28;20426;-58
2021/04/16 13:29:00;;;;;;;21.65;4.65;;;19.60;34.20;;;;;;5067020;28;20088;-59
2021/04/16 13:31:33;;;;;;;20.88;4.00;;;19.60;34.40;;;;;;5069396;28;20077;-59
2021/04/16 13:34:01;;;;;;;19.65;4.03;;;19.70;34.30;;;;;;5065713;28;20470;-59
2021/04/16 13:36:30;;;;;;;20.60;4.45;;;19.80;34.50;;;;;;5066940;28;20159;-57
2021/04/16 13:38:57;;;;;;;21.95;4.15;;;19.90;34.10;;;;;;5064927;28;20069;-58
2021/04/16 13:41:24;;;;;;;25.65;3.70;;;19.90;33.90;;;;;;5068168;28;20081;-60
2021/04/16 13:43:52;;;;;;;23.83;3.83;;;19.80;33.70;;;;;;5064147;28;21259;-57
2021/04/16 13:46:24;;;;;;;20.98;3.80;;;19.90;34.70;;;;;;5069732;28;20077;-58
2021/04/16 13:48:51;;;;;;;20.75;4.05;;;20.00;34.80;;;;;;5063577;28;20085;-59
2021/04/16 13:51:19;;;;;;;24.80;4.60;;;20.10;34.80;;;;;;5067826;28;20156;-60
2021/04/16 13:53:47;;;;;;;37.65;4.72;;;20.10;36.10;;;;;;5067499;28;20077;-61
2021/04/16 13:56:14;;;;;;;21.30;4.38;;;20.10;35.90;;;;;;5069439;28;20068;-59
2021/04/16 13:58:40;;;;;;;37.30;5.68;;;20.00;34.90;;;;;;5065509;28;20578;-60
2021/04/16 14:01:09;;;;;;;34.42;4.43;;;20.10;35.90;;;;;;5068135;28;20081;-60
2021/04/16 14:03:46;;;;;;;20.33;4.10;;;20.10;35.20;;;;;;5066489;28;20203;-62
2021/04/16 14:06:20;;;;;;;22.40;4.57;;;20.20;36.00;;;;;;5069158;28;20107;-60
2021/04/16 14:09:23;;;;;;;23.33;4.75;;;20.20;35.40;;;;;;5066482;28;20101;-61
2021/04/16 14:11:51;;;;;;;24.75;4.40;;;20.10;34.90;;;;;;5026587;28;20090;-61
2021/04/16 14:14:25;;;;;;;40.25;5.45;;;20.20;36.50;;;;;;5060730;28;20146;-61
2021/04/16 14:17:00;;;;;;;26.00;4.75;;;20.30;36.40;;;;;;5068199;28;20072;-61
2021/04/16 14:19:37;;;;;;;29.10;4.97;;;20.40;35.70;;;;;;5066224;28;20119;-61
2021/04/16 14:22:04;;;;;;;23.73;3.80;;;20.50;34.30;;;;;;5067782;28;20095;-60
2021/04/16 14:24:31;;;;;;;22.90;4.45;;;20.50;33.80;;;;;;5069706;28;20557;-60
2021/04/16 14:26:58;;;;;;;25.48;4.78;;;20.60;33.50;;;;;;5066545;28;20105;-60
2021/04/16 14:29:26;;;;;;;23.92;4.45;;;20.70;34.20;;;;;;5063769;28;20066;-59
2021/04/16 14:31:53;;;;;;;19.85;3.83;;;20.80;32.80;;;;;;5068742;28;20084;-60
2021/04/16 14:34:24;;;;;;;24.17;4.40;;;20.90;32.70;;;;;;5069487;28;20080;-58
2021/04/16 14:36:51;;;;;;;20.55;4.53;;;21.00;32.40;;;;;;5064528;28;20112;-61
2021/04/16 14:39:17;;;;;;;23.60;4.25;;;21.10;32.00;;;;;;5065872;28;20124;-60
2021/04/16 14:41:44;;;;;;;23.20;3.53;;;21.30;32.60;;;;;;5064606;28;20128;-61
2021/04/16 14:44:16;;;;;;;24.02;4.30;;;21.40;32.20;;;;;;5066078;28;20204;-61
2021/04/16 14:46:54;;;;;;;22.63;4.60;;;21.50;31.50;;;;;;5071601;28;20089;-61
2021/04/16 14:49:25;;;;;;;23.15;4.15;;;21.50;31.70;;;;;;5071815;28;20080;-61
2021/04/16 14:51:52;;;;;;;24.92;4.80;;;21.50;32.40;;;;;;5071045;28;20069;-60
2021/04/16 14:54:32;;;;;;;30.52;4.85;;;21.60;32.30;;;;;;5072110;28;20081;-61
2021/04/16 14:57:00;;;;;;;24.98;4.55;;;21.70;32.60;;;;;;5069745;28;20081;-58
2021/04/16 14:59:28;;;;;;;28.40;4.57;;;21.70;32.00;;;;;;5066555;28;20069;-61
2021/04/16 15:01:55;;;;;;;35.35;4.72;;;21.80;33.00;;;;;;5070126;28;20075;-59
2021/04/16 15:04:22;;;;;;;22.73;4.30;;;21.80;32.30;;;;;;5070992;28;20528;-60
2021/04/16 15:06:57;;;;;;;26.20;4.47;;;21.80;32.20;;;;;;5071249;28;20101;-60
2021/04/16 15:09:30;;;;;;;19.75;4.53;;;21.90;32.20;;;;;;5068969;28;20155;-60
2021/04/16 15:11:59;;;;;;;25.50;4.53;;;22.00;32.40;;;;;;5068773;28;20083;-61
2021/04/16 15:14:29;;;;;;;22.35;4.05;;;22.00;32.50;;;;;;5067217;28;20077;-57